Time;durP1;ratioP1;P1;durP2;ratioP2;P2;SDS_P1;SDS_P2;PMS_P1;PMS_P2;Temp;Humidity;BMP_temperature;BMP_pressure;BME280_temperature;BME280_humidity;BME280_pressure;Samples;Min_cycle;Max_cycle;Signal;HPM_P1;HPM_P2
2022/12/13 00:00:13;;;;;;;39.03;17.40;;;;;;;;;;5003407;28;20053;-59
2022/12/13 00:02:38;;;;;;;41.83;16.48;;;;;;;;;;4996537;28;20048;-59
2022/12/13 00:05:04;;;;;;;34.40;16.63;;;;;;;;;;5000792;28;20444;-60
2022/12/13 00:07:29;;;;;;;38.47;17.50;;;;;;;;;;5003262;28;20484;-59
2022/12/13 00:09:54;;;;;;;37.15;15.73;;;;;;;;;;5001490;28;20066;-59
2022/12/13 00:12:21;;;;;;;46.00;17.00;;;;;;;;;;5001519;28;20034;-59
2022/12/13 00:14:46;;;;;;;46.75;18.70;;;;;;;;;;4996331;28;20089;-60
2022/12/13 00:17:11;;;;;;;40.33;17.55;;;;;;;;;;4997036;28;20038;-59
2022/12/13 00:19:36;;;;;;;37.67;17.50;;;;;;;;;;4996496;28;20077;-59
2022/12/13 00:22:02;;;;;;;31.85;15.18;;;;;;;;;;4997412;28;20129;-59
2022/12/13 00:24:27;;;;;;;40.20;17.15;;;;;;;;;;4996682;28;20034;-60
2022/12/13 00:26:53;;;;;;;33.83;15.77;;;;;;;;;;5000853;28;20037;-59
2022/12/13 00:29:20;;;;;;;33.45;14.57;;;;;;;;;;4996293;28;20038;-60
2022/12/13 00:31:45;;;;;;;36.90;16.30;;;;;;;;;;4997315;28;20034;-59
2022/12/13 00:34:10;;;;;;;38.47;16.65;;;;;;;;;;4997544;28;20034;-60
2022/12/13 00:36:35;;;;;;;38.50;16.60;;;;;;;;;;4999564;28;20761;-60
2022/12/13 00:39:01;;;;;;;38.80;16.90;;;;;;;;;;4997247;28;20042;-59
2022/12/13 00:41:31;;;;;;;37.03;16.02;;;;;;;;;;4998836;28;20046;-59
2022/12/13 00:43:56;;;;;;;37.15;16.58;;;;;;;;;;4996608;28;20285;-59
2022/12/13 00:46:22;;;;;;;38.50;16.30;;;;;;;;;;4998002;28;20022;-59
2022/12/13 00:48:49;;;;;;;38.50;17.30;;;;;;;;;;4999121;28;20038;-59
2022/12/13 00:51:14;;;;;;;41.47;16.77;;;;;;;;;;4998768;28;20812;-59
2022/12/13 00:53:40;;;;;;;38.28;17.35;;;;;;;;;;4996660;28;20026;-59
2022/12/13 00:56:10;;;;;;;40.78;16.88;;;;;;;;;;4997997;28;20037;-58
2022/12/13 00:58:35;;;;;;;43.67;16.80;;;;;;;;;;4998768;28;20108;-59
2022/12/13 01:01:01;;;;;;;40.88;17.17;;;;;;;;;;4995702;28;20283;-59
2022/12/13 01:03:26;;;;;;;36.20;15.40;;;;;;;;;;4996445;28;20038;-59
2022/12/13 01:05:52;;;;;;;34.75;15.60;;;;;;;;;;4994166;28;20445;-60
2022/12/13 01:08:17;;;;;;;39.28;14.93;;;;;;;;;;4994316;28;20037;-60
2022/12/13 01:10:43;;;;;;;35.00;15.55;;;;;;;;;;4996850;28;20040;-60
2022/12/13 01:13:09;;;;;;;32.13;14.45;;;;;;;;;;4996599;28;20161;-59
2022/12/13 01:15:34;;;;;;;35.22;15.48;;;;;;;;;;4995000;28;20129;-59
2022/12/13 01:17:59;;;;;;;33.50;14.65;;;;;;;;;;4997697;28;20041;-60
2022/12/13 01:20:25;;;;;;;38.80;15.90;;;;;;;;;;4996177;28;20045;-60
2022/12/13 01:22:50;;;;;;;37.03;16.08;;;;;;;;;;5007224;28;20031;-60
2022/12/13 01:25:15;;;;;;;31.98;14.80;;;;;;;;;;4997070;28;20029;-60
2022/12/13 01:27:41;;;;;;;38.67;16.33;;;;;;;;;;4996067;28;20042;-60
2022/12/13 01:30:06;;;;;;;35.88;14.27;;;;;;;;;;4994115;28;20430;-59
2022/12/13 01:32:31;;;;;;;37.40;15.30;;;;;;;;;;4994205;28;20419;-60
2022/12/13 01:34:57;;;;;;;36.83;15.80;;;;;;;;;;4997451;28;20395;-59
2022/12/13 01:37:22;;;;;;;31.75;14.65;;;;;;;;;;4997731;28;20481;-59
2022/12/13 01:39:47;;;;;;;38.17;16.27;;;;;;;;;;4994818;28;20041;-60
2022/12/13 01:42:13;;;;;;;44.30;16.77;;;;;;;;;;5000825;28;20034;-60
2022/12/13 01:45:00;;;;;;;47.55;18.70;;;;;;;;;;4994133;28;20026;-59
2022/12/13 01:48:01;;;;;;;35.55;17.13;;;;;;;;;;4993409;28;20042;-59
2022/12/13 01:50:28;;;;;;;33.83;16.42;;;;;;;;;;4929733;29;20040;-59
2022/12/13 01:52:55;;;;;;;35.80;16.25;;;;;;;;;;4978718;28;20463;-60
2022/12/13 01:55:21;;;;;;;40.70;16.95;;;;;;;;;;4995113;28;20101;-60
2022/12/13 01:57:47;;;;;;;34.30;16.80;;;;;;;;;;4995903;28;20038;-59
2022/12/13 02:00:13;;;;;;;40.73;16.57;;;;;;;;;;4996582;28;20030;-60
2022/12/13 02:02:38;;;;;;;39.38;16.33;;;;;;;;;;4990385;28;20034;-61
2022/12/13 02:05:14;;;;;;;40.92;16.85;;;;;;;;;;5002248;28;20048;-58
2022/12/13 02:07:41;;;;;;;44.08;17.27;;;;;;;;;;4997394;28;20042;-58
2022/12/13 02:10:07;;;;;;;42.80;17.40;;;;;;;;;;4995090;28;20499;-59
2022/12/13 02:12:33;;;;;;;41.40;17.25;;;;;;;;;;4995676;28;20041;-60
2022/12/13 02:14:59;;;;;;;34.65;16.65;;;;;;;;;;4996505;28;20034;-60
2022/12/13 02:17:40;;;;;;;45.20;17.10;;;;;;;;;;4996097;28;20072;-59
2022/12/13 02:20:24;;;;;;;41.88;15.43;;;;;;;;;;4993957;28;20137;-59
2022/12/13 02:22:55;;;;;;;45.83;16.60;;;;;;;;;;4996500;28;20045;-60
2022/12/13 02:25:58;;;;;;;36.05;15.55;;;;;;;;;;4993351;28;20072;-59
2022/12/13 02:28:33;;;;;;;35.38;15.75;;;;;;;;;;4941902;28;20090;-59
2022/12/13 02:31:12;;;;;;;34.97;15.68;;;;;;;;;;4952726;28;20043;-59
2022/12/13 02:33:51;;;;;;;38.58;15.65;;;;;;;;;;4979395;28;20077;-59
2022/12/13 02:36:16;;;;;;;42.35;16.85;;;;;;;;;;4998594;28;20039;-58
2022/12/13 02:38:52;;;;;;;43.10;16.80;;;;;;;;;;4994531;28;20037;-59
2022/12/13 02:41:33;;;;;;;36.55;15.38;;;;;;;;;;5007970;28;20604;-58
2022/12/13 02:44:19;;;;;;;40.33;15.98;;;;;;;;;;5008377;28;20419;-58
2022/12/13 02:46:49;;;;;;;41.17;17.50;;;;;;;;;;4997894;28;20068;-59
2022/12/13 02:49:15;;;;;;;45.88;17.95;;;;;;;;;;4996133;28;20033;-59
2022/12/13 02:51:41;;;;;;;43.30;18.75;;;;;;;;;;4994759;28;20500;-61
2022/12/13 02:54:07;;;;;;;39.13;17.08;;;;;;;;;;4994834;28;20022;-60
2022/12/13 02:56:32;;;;;;;47.13;17.73;;;;;;;;;;4995216;28;20026;-58
2022/12/13 02:58:58;;;;;;;49.53;18.25;;;;;;;;;;4994173;28;20477;-60
2022/12/13 03:01:26;;;;;;;39.00;17.15;;;;;;;;;;4993303;28;20195;-59
2022/12/13 03:03:54;;;;;;;40.78;17.60;;;;;;;;;;4993750;28;20105;-60
2022/12/13 03:06:28;;;;;;;36.92;15.88;;;;;;;;;;4994313;28;20027;-60
2022/12/13 03:08:54;;;;;;;35.95;16.48;;;;;;;;;;4992753;28;20038;-60
2022/12/13 03:11:20;;;;;;;38.15;15.20;;;;;;;;;;4995074;28;20030;-59
2022/12/13 03:13:48;;;;;;;38.15;16.38;;;;;;;;;;4993458;28;20039;-59
2022/12/13 03:16:23;;;;;;;41.90;16.58;;;;;;;;;;4994913;28;20385;-59
2022/12/13 03:18:49;;;;;;;40.17;16.60;;;;;;;;;;4996658;28;20033;-59
2022/12/13 03:21:14;;;;;;;47.95;16.23;;;;;;;;;;4999915;28;20440;-59
2022/12/13 03:23:39;;;;;;;43.65;16.88;;;;;;;;;;4996867;28;20034;-59
2022/12/13 03:26:17;;;;;;;38.58;16.50;;;;;;;;;;5002455;28;20077;-59
2022/12/13 03:28:42;;;;;;;39.88;16.55;;;;;;;;;;5000112;28;20096;-60
2022/12/13 03:31:07;;;;;;;38.55;16.35;;;;;;;;;;4999033;28;20038;-60
2022/12/13 03:33:33;;;;;;;39.13;15.63;;;;;;;;;;4997026;28;20079;-59
2022/12/13 03:35:59;;;;;;;43.58;15.27;;;;;;;;;;4995177;28;20034;-58
2022/12/13 03:38:24;;;;;;;44.75;18.35;;;;;;;;;;5005846;28;20038;-61
2022/12/13 03:40:56;;;;;;;45.20;18.00;;;;;;;;;;4996349;28;20030;-59
2022/12/13 03:43:21;;;;;;;39.88;16.77;;;;;;;;;;4997870;28;20108;-59
2022/12/13 03:45:47;;;;;;;43.45;18.50;;;;;;;;;;4995108;28;20216;-58
2022/12/13 03:48:12;;;;;;;36.50;16.30;;;;;;;;;;4996575;28;20034;-58
2022/12/13 03:50:37;;;;;;;37.60;16.20;;;;;;;;;;4996087;28;20034;-59
2022/12/13 03:53:03;;;;;;;40.13;16.63;;;;;;;;;;4997392;28;20066;-59
2022/12/13 03:55:28;;;;;;;51.35;17.25;;;;;;;;;;4995781;28;20022;-59
2022/12/13 03:57:54;;;;;;;41.35;16.73;;;;;;;;;;5001814;28;20042;-58
2022/12/13 04:00:19;;;;;;;42.05;18.33;;;;;;;;;;4996264;28;20073;-59
2022/12/13 04:02:44;;;;;;;43.60;16.60;;;;;;;;;;4994778;28;20030;-59
2022/12/13 04:05:10;;;;;;;39.03;15.48;;;;;;;;;;4994435;28;20431;-60
2022/12/13 04:07:35;;;;;;;45.33;19.25;;;;;;;;;;4995161;28;20034;-59
2022/12/13 04:10:01;;;;;;;47.53;19.08;;;;;;;;;;4995074;28;20415;-59
2022/12/13 04:15:10;;;;;;;44.25;17.70;;;;;;;;;;4996422;28;20038;-59
2022/12/13 04:17:35;;;;;;;47.15;19.92;;;;;;;;;;5011778;28;20034;-59
2022/12/13 04:20:00;;;;;;;47.22;18.52;;;;;;;;;;4996069;28;20022;-59
2022/12/13 04:22:26;;;;;;;46.78;18.15;;;;;;;;;;4995873;28;20093;-59
2022/12/13 04:24:51;;;;;;;41.53;17.60;;;;;;;;;;4996418;28;20057;-59
2022/12/13 04:27:16;;;;;;;51.17;19.35;;;;;;;;;;4996707;28;20027;-60
2022/12/13 04:29:42;;;;;;;51.65;18.40;;;;;;;;;;4994383;28;20089;-60
2022/12/13 04:32:07;;;;;;;42.75;18.08;;;;;;;;;;4993982;28;20495;-59
2022/12/13 04:34:33;;;;;;;41.35;19.10;;;;;;;;;;4995383;28;20063;-59
2022/12/13 04:36:58;;;;;;;48.42;19.75;;;;;;;;;;4998257;28;20034;-59
2022/12/13 04:39:23;;;;;;;44.33;18.52;;;;;;;;;;4997617;28;20505;-58
2022/12/13 04:41:50;;;;;;;44.25;17.98;;;;;;;;;;4995401;28;20053;-59
2022/12/13 04:44:15;;;;;;;54.28;19.38;;;;;;;;;;4995406;28;20026;-58
2022/12/13 04:46:41;;;;;;;65.05;32.92;;;;;;;;;;5010947;28;20049;-59
2022/12/13 04:49:07;;;;;;;63.60;31.00;;;;;;;;;;4997052;28;20042;-58
2022/12/13 04:51:32;;;;;;;54.85;22.73;;;;;;;;;;4996154;28;20377;-58
2022/12/13 04:53:57;;;;;;;48.53;20.58;;;;;;;;;;4999117;28;20030;-59
2022/12/13 04:56:23;;;;;;;49.10;18.73;;;;;;;;;;4993490;28;20037;-59
2022/12/13 04:58:48;;;;;;;44.72;18.65;;;;;;;;;;4994437;28;20072;-59
2022/12/13 05:01:13;;;;;;;45.45;17.00;;;;;;;;;;5001195;28;20038;-59
2022/12/13 05:03:39;;;;;;;43.08;16.83;;;;;;;;;;4986271;28;20041;-58
2022/12/13 05:06:08;;;;;;;46.95;17.98;;;;;;;;;;4997048;28;20031;-58
2022/12/13 05:08:35;;;;;;;41.65;16.77;;;;;;;;;;4997404;28;20408;-60
2022/12/13 05:11:00;;;;;;;47.55;18.25;;;;;;;;;;4996366;28;20484;-59
2022/12/13 05:13:26;;;;;;;45.30;18.40;;;;;;;;;;4994475;28;20051;-59
2022/12/13 05:15:55;;;;;;;42.97;17.63;;;;;;;;;;4996595;28;20040;-59
2022/12/13 05:18:20;;;;;;;47.13;18.00;;;;;;;;;;4997193;28;20098;-59
2022/12/13 05:20:46;;;;;;;46.65;20.23;;;;;;;;;;4996396;28;20129;-59
2022/12/13 05:23:11;;;;;;;48.75;18.02;;;;;;;;;;4995878;28;20037;-59
2022/12/13 05:25:36;;;;;;;44.40;18.80;;;;;;;;;;4995260;28;20109;-60
2022/12/13 05:28:02;;;;;;;43.28;17.77;;;;;;;;;;4998822;28;20049;-60
2022/12/13 05:30:27;;;;;;;42.53;18.48;;;;;;;;;;4995338;28;20036;-59
2022/12/13 05:32:52;;;;;;;44.17;17.48;;;;;;;;;;4995307;28;20120;-60
2022/12/13 05:35:18;;;;;;;42.67;17.95;;;;;;;;;;4994839;28;20041;-59
2022/12/13 05:37:43;;;;;;;46.75;19.35;;;;;;;;;;4995282;28;20703;-59
2022/12/13 05:40:08;;;;;;;46.15;18.50;;;;;;;;;;4997420;28;20028;-59
2022/12/13 05:42:35;;;;;;;40.60;17.80;;;;;;;;;;4994727;28;20109;-59
2022/12/13 05:45:00;;;;;;;50.42;21.45;;;;;;;;;;4994098;28;20373;-59
2022/12/13 05:47:26;;;;;;;43.42;18.70;;;;;;;;;;4996780;28;20044;-58
2022/12/13 05:49:51;;;;;;;44.20;18.17;;;;;;;;;;4994638;28;20088;-61
2022/12/13 05:52:17;;;;;;;36.03;16.23;;;;;;;;;;4991763;28;20030;-62
2022/12/13 05:54:42;;;;;;;47.15;18.50;;;;;;;;;;4994838;28;20034;-60
2022/12/13 05:57:08;;;;;;;36.60;17.10;;;;;;;;;;4991167;28;20061;-59
2022/12/13 05:59:35;;;;;;;44.88;18.50;;;;;;;;;;4992111;28;20026;-59
2022/12/13 06:02:00;;;;;;;46.00;18.52;;;;;;;;;;4993179;28;20057;-59
2022/12/13 06:04:25;;;;;;;45.88;15.80;;;;;;;;;;4989613;28;20484;-59
2022/12/13 06:06:51;;;;;;;42.83;18.17;;;;;;;;;;4994242;28;20030;-60
2022/12/13 06:09:16;;;;;;;40.35;18.23;;;;;;;;;;4991042;28;20520;-60
2022/12/13 06:11:41;;;;;;;50.25;17.35;;;;;;;;;;4994192;28;20037;-59
2022/12/13 06:14:07;;;;;;;48.30;18.85;;;;;;;;;;4992248;28;20038;-60
2022/12/13 06:16:33;;;;;;;41.83;17.38;;;;;;;;;;5001083;28;20038;-60
2022/12/13 06:18:59;;;;;;;53.33;20.55;;;;;;;;;;4991406;28;20033;-59
2022/12/13 06:21:24;;;;;;;56.20;19.45;;;;;;;;;;4994889;28;20075;-59
2022/12/13 06:23:50;;;;;;;38.92;16.85;;;;;;;;;;4995149;28;20456;-59
2022/12/13 06:26:15;;;;;;;46.97;17.55;;;;;;;;;;4999306;28;20046;-60
2022/12/13 06:28:42;;;;;;;45.20;18.42;;;;;;;;;;4994205;28;20393;-60
2022/12/13 06:31:07;;;;;;;47.72;19.05;;;;;;;;;;4994785;28;20433;-60
2022/12/13 06:33:37;;;;;;;51.80;18.55;;;;;;;;;;4990484;28;20041;-59
2022/12/13 06:36:03;;;;;;;46.60;18.77;;;;;;;;;;4991677;28;20616;-59
2022/12/13 06:38:29;;;;;;;46.80;19.77;;;;;;;;;;4994244;28;20034;-59
2022/12/13 06:40:54;;;;;;;51.83;21.65;;;;;;;;;;4995517;28;20053;-59
2022/12/13 06:43:19;;;;;;;48.72;19.58;;;;;;;;;;4990398;28;20400;-59
2022/12/13 06:45:45;;;;;;;49.10;17.83;;;;;;;;;;4969946;28;20018;-60
2022/12/13 06:48:11;;;;;;;47.22;19.20;;;;;;;;;;5007177;28;20034;-59
2022/12/13 06:50:36;;;;;;;49.33;18.70;;;;;;;;;;4991631;28;20030;-59
2022/12/13 06:53:02;;;;;;;46.20;19.42;;;;;;;;;;4994412;28;20092;-60
2022/12/13 06:55:27;;;;;;;43.72;18.67;;;;;;;;;;4996724;28;20029;-59
2022/12/13 06:57:52;;;;;;;44.75;16.27;;;;;;;;;;4998381;28;20465;-59
2022/12/13 07:00:18;;;;;;;48.63;17.75;;;;;;;;;;4998734;28;20037;-59
2022/12/13 07:02:43;;;;;;;47.22;19.67;;;;;;;;;;4997394;28;20030;-59
2022/12/13 07:05:08;;;;;;;52.08;19.40;;;;;;;;;;5000626;28;20051;-59
2022/12/13 07:07:34;;;;;;;50.38;18.85;;;;;;;;;;5000246;28;20653;-59
2022/12/13 07:09:59;;;;;;;52.08;19.27;;;;;;;;;;4993893;28;20030;-59
2022/12/13 07:12:24;;;;;;;56.03;20.60;;;;;;;;;;4998798;28;20132;-59
2022/12/13 07:14:50;;;;;;;45.08;18.77;;;;;;;;;;4996647;28;20380;-59
2022/12/13 07:17:16;;;;;;;47.83;19.77;;;;;;;;;;4997312;28;20023;-59
2022/12/13 07:19:41;;;;;;;51.05;18.65;;;;;;;;;;4996219;28;20110;-60
2022/12/13 07:22:07;;;;;;;50.25;19.58;;;;;;;;;;4997749;28;20080;-59
2022/12/13 07:24:35;;;;;;;51.35;18.75;;;;;;;;;;4981347;28;20546;-59
2022/12/13 07:27:01;;;;;;;60.72;21.25;;;;;;;;;;4996582;28;20017;-59
2022/12/13 07:29:27;;;;;;;53.47;19.05;;;;;;;;;;4997031;28;20088;-59
2022/12/13 07:31:52;;;;;;;45.67;18.13;;;;;;;;;;4994181;28;20037;-58
2022/12/13 07:34:17;;;;;;;46.85;18.25;;;;;;;;;;4992537;28;20030;-59
2022/12/13 07:36:43;;;;;;;48.47;18.35;;;;;;;;;;4996027;28;20045;-58
2022/12/13 07:39:09;;;;;;;52.58;19.38;;;;;;;;;;4994385;28;20061;-58
2022/12/13 07:41:34;;;;;;;57.05;20.52;;;;;;;;;;4999556;28;20057;-61
2022/12/13 07:43:59;;;;;;;59.90;22.35;;;;;;;;;;4993673;28;20426;-61
2022/12/13 07:46:25;;;;;;;55.90;19.70;;;;;;;;;;4995396;28;20049;-60
2022/12/13 07:48:50;;;;;;;50.70;19.30;;;;;;;;;;4994870;28;20130;-60
2022/12/13 07:51:15;;;;;;;46.28;18.58;;;;;;;;;;4998109;28;20141;-60
2022/12/13 07:53:41;;;;;;;55.55;19.77;;;;;;;;;;4993434;28;20695;-60
2022/12/13 07:56:07;;;;;;;55.90;21.02;;;;;;;;;;4980490;28;20038;-60
2022/12/13 07:58:33;;;;;;;53.20;19.95;;;;;;;;;;4984255;28;20109;-59
2022/12/13 08:00:59;;;;;;;47.85;19.90;;;;;;;;;;4995629;28;20022;-60
2022/12/13 08:03:25;;;;;;;49.23;20.13;;;;;;;;;;4991186;28;20076;-60
2022/12/13 08:05:57;;;;;;;54.65;19.35;;;;;;;;;;4994230;28;20829;-60
2022/12/13 08:08:22;;;;;;;50.22;18.60;;;;;;;;;;4993798;28;20041;-60
2022/12/13 08:10:47;;;;;;;50.50;17.95;;;;;;;;;;4993506;28;20048;-60
2022/12/13 08:13:12;;;;;;;45.45;18.05;;;;;;;;;;4992669;28;20030;-59
2022/12/13 08:15:38;;;;;;;46.45;17.77;;;;;;;;;;4996255;28;20038;-59
2022/12/13 08:18:03;;;;;;;47.92;19.25;;;;;;;;;;4995067;28;20617;-60
2022/12/13 08:20:29;;;;;;;46.03;17.60;;;;;;;;;;4993692;28;20045;-61
2022/12/13 08:22:55;;;;;;;49.75;19.17;;;;;;;;;;4999197;28;20030;-60
2022/12/13 08:25:21;;;;;;;52.40;19.70;;;;;;;;;;4984270;28;20649;-60
2022/12/13 08:27:46;;;;;;;40.60;17.45;;;;;;;;;;4993699;28;20042;-60
2022/12/13 08:30:11;;;;;;;45.70;18.10;;;;;;;;;;4993385;28;20026;-60
2022/12/13 08:32:37;;;;;;;48.55;19.45;;;;;;;;;;4994538;28;20440;-60
2022/12/13 08:35:02;;;;;;;48.45;18.92;;;;;;;;;;4995071;28;20560;-60
2022/12/13 08:37:27;;;;;;;50.55;19.30;;;;;;;;;;4993842;28;20404;-60
2022/12/13 08:39:53;;;;;;;47.42;17.42;;;;;;;;;;4996536;28;20403;-59
2022/12/13 08:42:18;;;;;;;49.08;19.02;;;;;;;;;;4993657;28;20021;-60
2022/12/13 08:44:47;;;;;;;50.35;18.02;;;;;;;;;;4996304;28;20026;-60
2022/12/13 08:47:13;;;;;;;47.03;16.95;;;;;;;;;;4993898;28;20205;-60
2022/12/13 08:49:40;;;;;;;43.37;18.03;;;;;;;;;;4995517;28;20050;-60
2022/12/13 08:52:05;;;;;;;49.45;16.90;;;;;;;;;;4992876;28;20022;-60
2022/12/13 08:54:34;;;;;;;41.10;18.23;;;;;;;;;;4994265;28;20029;-61
2022/12/13 08:57:00;;;;;;;39.10;16.95;;;;;;;;;;4992977;28;20040;-60
2022/12/13 08:59:25;;;;;;;43.58;16.83;;;;;;;;;;4994022;28;20026;-60
2022/12/13 09:01:51;;;;;;;47.33;16.67;;;;;;;;;;4993345;28;20029;-60
2022/12/13 09:04:16;;;;;;;40.97;17.08;;;;;;;;;;4993944;28;20026;-60
2022/12/13 09:06:42;;;;;;;44.20;16.73;;;;;;;;;;4993941;28;20033;-60
2022/12/13 09:09:08;;;;;;;43.22;17.55;;;;;;;;;;4992270;28;20033;-60
2022/12/13 09:11:33;;;;;;;34.78;15.73;;;;;;;;;;4993773;28;20034;-60
2022/12/13 09:13:58;;;;;;;41.85;15.95;;;;;;;;;;4997413;28;20112;-61
2022/12/13 09:16:24;;;;;;;39.55;16.27;;;;;;;;;;4990992;28;20399;-60
2022/12/13 09:18:50;;;;;;;44.45;17.00;;;;;;;;;;4993246;28;20371;-61
2022/12/13 09:21:16;;;;;;;36.72;15.48;;;;;;;;;;4991110;28;20084;-60
2022/12/13 09:23:41;;;;;;;39.95;16.13;;;;;;;;;;4994900;28;20036;-60
2022/12/13 09:26:07;;;;;;;45.90;16.90;;;;;;;;;;4994607;28;20034;-61
2022/12/13 09:28:33;;;;;;;41.35;16.15;;;;;;;;;;4990483;28;20034;-60
2022/12/13 09:30:59;;;;;;;41.38;16.42;;;;;;;;;;4992180;28;20041;-61
2022/12/13 09:33:24;;;;;;;37.50;15.98;;;;;;;;;;4996841;28;20570;-60
2022/12/13 09:35:50;;;;;;;34.75;14.82;;;;;;;;;;4993141;28;20034;-60
2022/12/13 09:38:16;;;;;;;40.58;15.98;;;;;;;;;;4991046;28;20108;-61
2022/12/13 09:40:43;;;;;;;31.42;15.07;;;;;;;;;;4994101;28;20056;-60
2022/12/13 09:43:11;;;;;;;39.17;16.52;;;;;;;;;;4981231;28;20030;-61
2022/12/13 09:45:38;;;;;;;38.53;15.38;;;;;;;;;;4993574;28;20042;-60
2022/12/13 09:48:04;;;;;;;32.42;14.55;;;;;;;;;;4993051;28;20082;-60
2022/12/13 09:50:32;;;;;;;29.67;13.80;;;;;;;;;;4993323;28;20435;-61
2022/12/13 09:52:58;;;;;;;29.67;14.32;;;;;;;;;;4995855;28;20092;-60
2022/12/13 09:55:30;;;;;;;34.83;15.13;;;;;;;;;;4991245;28;20034;-59
2022/12/13 09:57:56;;;;;;;39.15;15.18;;;;;;;;;;4994468;28;20548;-60
2022/12/13 10:00:22;;;;;;;32.58;14.15;;;;;;;;;;4993306;28;20113;-60
2022/12/13 10:02:48;;;;;;;32.70;14.53;;;;;;;;;;4992659;28;20042;-59
2022/12/13 10:05:15;;;;;;;35.35;14.38;;;;;;;;;;4990280;28;20026;-60
2022/12/13 10:07:40;;;;;;;;;;;;;;;;;;4994706;28;20468;-60
2022/12/13 10:10:08;;;;;;;35.60;14.20;;;;;;;;;;4993009;28;19920;-59
2022/12/13 10:12:34;;;;;;;34.55;14.40;;;;;;;;;;4991605;28;20034;-60
2022/12/13 10:15:00;;;;;;;36.57;14.80;;;;;;;;;;5009302;28;20064;-59
2022/12/13 10:17:30;;;;;;;30.38;13.85;;;;;;;;;;4980511;28;20101;-60
2022/12/13 10:19:55;;;;;;;31.40;13.57;;;;;;;;;;4997432;28;20121;-60
2022/12/13 10:22:24;;;;;;;35.45;14.57;;;;;;;;;;4993190;28;20133;-59
2022/12/13 10:24:49;;;;;;;35.47;14.90;;;;;;;;;;4994110;28;20030;-60
2022/12/13 10:27:27;;;;;;;34.58;14.02;;;;;;;;;;4990700;28;20499;-60
2022/12/13 10:30:00;;;;;;;27.75;12.45;;;;;;;;;;4997515;28;20038;-59
2022/12/13 10:32:26;;;;;;;27.02;12.15;;;;;;;;;;5010848;28;20042;-59
2022/12/13 10:34:54;;;;;;;32.05;13.00;;;;;;;;;;4992710;28;20049;-59
2022/12/13 10:37:29;;;;;;;28.23;12.68;;;;;;;;;;5000012;28;20113;-59
2022/12/13 10:39:55;;;;;;;28.35;13.05;;;;;;;;;;4996975;28;20030;-59
2022/12/13 10:42:20;;;;;;;26.63;11.98;;;;;;;;;;4997932;28;20033;-59
2022/12/13 10:44:46;;;;;;;28.45;12.30;;;;;;;;;;4997017;28;20612;-59
2022/12/13 10:47:14;;;;;;;28.52;12.55;;;;;;;;;;4996077;28;20033;-60
2022/12/13 10:50:00;;;;;;;26.35;12.60;;;;;;;;;;4995219;28;20040;-59
2022/12/13 10:52:28;;;;;;;29.65;12.95;;;;;;;;;;4984563;28;20042;-60
2022/12/13 10:54:55;;;;;;;25.35;11.63;;;;;;;;;;4996860;28;20038;-59
2022/12/13 10:57:20;;;;;;;23.70;11.27;;;;;;;;;;4997844;28;20120;-60
2022/12/13 10:59:47;;;;;;;30.92;12.50;;;;;;;;;;4996607;28;20827;-60
2022/12/13 11:02:29;;;;;;;29.03;13.07;;;;;;;;;;4993199;28;20033;-60
2022/12/13 11:04:56;;;;;;;30.92;13.57;;;;;;;;;;4995588;28;20311;-59
2022/12/13 11:07:28;;;;;;;27.92;12.32;;;;;;;;;;4994413;28;20034;-60
2022/12/13 11:09:54;;;;;;;32.55;13.73;;;;;;;;;;5001166;28;20767;-59
2022/12/13 11:12:21;;;;;;;27.10;12.10;;;;;;;;;;4993629;28;20029;-60
2022/12/13 11:14:57;;;;;;;43.33;15.77;;;;;;;;;;5009074;28;20040;-60
2022/12/13 11:17:24;;;;;;;42.03;13.43;;;;;;;;;;5001366;28;20049;-60
2022/12/13 11:19:51;;;;;;;31.77;12.50;;;;;;;;;;4995806;28;20069;-60
2022/12/13 11:22:19;;;;;;;27.65;12.23;;;;;;;;;;4995871;28;20034;-60
2022/12/13 11:24:48;;;;;;;27.40;12.35;;;;;;;;;;4995278;28;20037;-60
2022/12/13 11:27:23;;;;;;;29.35;13.35;;;;;;;;;;4996649;28;20038;-59
2022/12/13 11:30:07;;;;;;;30.27;12.25;;;;;;;;;;4994887;28;20030;-59
2022/12/13 11:32:42;;;;;;;25.42;11.65;;;;;;;;;;4996240;28;20026;-60
2022/12/13 11:35:10;;;;;;;26.90;11.73;;;;;;;;;;4997201;28;20048;-60
2022/12/13 11:37:44;;;;;;;27.05;12.07;;;;;;;;;;4999151;28;20049;-60
2022/12/13 11:40:09;;;;;;;27.02;13.57;;;;;;;;;;4996884;28;20040;-60
2022/12/13 11:42:42;;;;;;;24.48;11.50;;;;;;;;;;4997008;28;20030;-60
2022/12/13 11:45:17;;;;;;;28.20;12.80;;;;;;;;;;4995532;28;20044;-60
2022/12/13 11:47:49;;;;;;;33.58;13.77;;;;;;;;;;4995586;28;20042;-59
2022/12/13 11:50:16;;;;;;;33.08;14.25;;;;;;;;;;4995917;28;20419;-60
2022/12/13 11:53:05;;;;;;;23.73;11.25;;;;;;;;;;5001685;28;20033;-60
2022/12/13 11:55:33;;;;;;;26.33;12.73;;;;;;;;;;4997107;28;20041;-59
2022/12/13 11:58:19;;;;;;;19.60;10.30;;;;;;;;;;5000572;28;20037;-62
2022/12/13 12:00:46;;;;;;;24.30;11.52;;;;;;;;;;4992675;28;20042;-61
2022/12/13 12:03:27;;;;;;;24.77;11.88;;;;;;;;;;4995313;28;20088;-60
2022/12/13 12:05:55;;;;;;;24.02;11.45;;;;;;;;;;4995628;28;20168;-60
2022/12/13 12:08:34;;;;;;;27.23;11.75;;;;;;;;;;4988904;28;20038;-60
2022/12/13 12:11:07;;;;;;;21.73;11.13;;;;;;;;;;4995338;28;20034;-60
2022/12/13 12:13:38;;;;;;;22.70;10.48;;;;;;;;;;4995434;28;20034;-61
2022/12/13 12:16:04;;;;;;;26.33;12.80;;;;;;;;;;4994910;28;20560;-59
2022/12/13 12:18:30;;;;;;;24.85;11.93;;;;;;;;;;4994000;28;20034;-60
2022/12/13 12:20:55;;;;;;;23.70;12.35;;;;;;;;;;4996912;28;20121;-60
2022/12/13 12:23:40;;;;;;;23.92;10.90;;;;;;;;;;4992922;28;20038;-60
2022/12/13 12:26:16;;;;;;;23.35;11.10;;;;;;;;;;4996747;28;20507;-60
2022/12/13 12:29:00;;;;;;;20.52;10.27;;;;;;;;;;4992425;28;20460;-60
2022/12/13 12:31:25;;;;;;;23.90;10.80;;;;;;;;;;4994716;28;20034;-61
2022/12/13 12:33:57;;;;;;;22.38;11.05;;;;;;;;;;4994942;28;20229;-61
2022/12/13 12:36:38;;;;;;;24.15;11.93;;;;;;;;;;4993706;28;20034;-60
2022/12/13 12:39:10;;;;;;;26.02;12.50;;;;;;;;;;4994792;28;20505;-60
2022/12/13 12:41:41;;;;;;;25.45;12.18;;;;;;;;;;4993621;28;20033;-59
2022/12/13 12:44:13;;;;;;;23.02;11.50;;;;;;;;;;4994689;28;20026;-60
2022/12/13 12:46:50;;;;;;;22.27;10.85;;;;;;;;;;4997038;28;20054;-60
2022/12/13 12:49:34;;;;;;;22.30;11.02;;;;;;;;;;5005708;28;20583;-60
2022/12/13 12:52:16;;;;;;;24.98;11.82;;;;;;;;;;4990652;28;20023;-60
2022/12/13 12:55:01;;;;;;;22.83;11.05;;;;;;;;;;4992555;28;20034;-60
2022/12/13 12:57:27;;;;;;;21.42;11.00;;;;;;;;;;4995075;28;20065;-60
2022/12/13 13:00:02;;;;;;;23.20;11.77;;;;;;;;;;4994800;28;20108;-60
2022/12/13 13:02:46;;;;;;;24.15;10.95;;;;;;;;;;4995603;28;20057;-60
2022/12/13 13:05:32;;;;;;;24.15;11.60;;;;;;;;;;4993455;28;20111;-60
2022/12/13 13:08:10;;;;;;;23.55;11.93;;;;;;;;;;4999278;28;20050;-60
2022/12/13 13:10:40;;;;;;;24.10;10.82;;;;;;;;;;4992869;28;20053;-60
2022/12/13 13:13:05;;;;;;;19.25;11.02;;;;;;;;;;4995166;28;20623;-60
2022/12/13 13:15:30;;;;;;;20.42;11.63;;;;;;;;;;4981950;28;20029;-61
2022/12/13 13:17:56;;;;;;;24.17;11.77;;;;;;;;;;4993841;28;20357;-60
2022/12/13 13:20:22;;;;;;;18.70;11.20;;;;;;;;;;4997002;28;20043;-60
2022/12/13 13:22:49;;;;;;;23.05;12.30;;;;;;;;;;4993495;28;20045;-61
2022/12/13 13:25:17;;;;;;;24.55;12.02;;;;;;;;;;4994091;28;20120;-60
2022/12/13 13:27:44;;;;;;;29.25;13.40;;;;;;;;;;4990296;28;20033;-59
2022/12/13 13:30:18;;;;;;;23.23;10.85;;;;;;;;;;4992896;28;20028;-59
2022/12/13 13:32:44;;;;;;;21.83;12.18;;;;;;;;;;4982426;28;20045;-59
2022/12/13 13:35:28;;;;;;;25.20;12.23;;;;;;;;;;4994316;28;20037;-60
2022/12/13 13:37:54;;;;;;;26.08;11.20;;;;;;;;;;4994599;28;20034;-60
2022/12/13 13:40:29;;;;;;;22.10;10.98;;;;;;;;;;4993662;28;20049;-61
2022/12/13 13:43:09;;;;;;;20.70;11.23;;;;;;;;;;4997761;28;20057;-60
2022/12/13 13:45:50;;;;;;;24.70;11.57;;;;;;;;;;4991223;28;20093;-60
2022/12/13 13:48:27;;;;;;;21.60;11.02;;;;;;;;;;4993758;28;20034;-60
2022/12/13 13:51:02;;;;;;;22.70;11.45;;;;;;;;;;4999238;28;20516;-59
2022/12/13 13:53:39;;;;;;;20.52;11.32;;;;;;;;;;4993398;28;20026;-60
2022/12/13 13:56:13;;;;;;;23.83;11.02;;;;;;;;;;4995473;28;20049;-59
2022/12/13 13:58:57;;;;;;;22.08;12.00;;;;;;;;;;5000341;28;20420;-62
2022/12/13 14:01:23;;;;;;;23.67;12.30;;;;;;;;;;4994687;28;20583;-62
2022/12/13 14:04:07;;;;;;;26.90;12.32;;;;;;;;;;4996210;28;20456;-59
2022/12/13 14:06:33;;;;;;;28.90;13.25;;;;;;;;;;4994220;28;20041;-61
2022/12/13 14:09:17;;;;;;;24.52;12.68;;;;;;;;;;4997996;28;20042;-61
2022/12/13 14:11:49;;;;;;;27.95;12.32;;;;;;;;;;5002437;28;20038;-61
2022/12/13 14:14:30;;;;;;;22.77;11.52;;;;;;;;;;4994853;28;20483;-61
2022/12/13 14:17:15;;;;;;;24.10;12.52;;;;;;;;;;4995230;28;20499;-61
2022/12/13 14:19:43;;;;;;;27.13;11.35;;;;;;;;;;4971807;28;20047;-60
2022/12/13 14:22:28;;;;;;;25.42;13.43;;;;;;;;;;5000534;28;20022;-60
2022/12/13 14:25:06;;;;;;;24.58;12.52;;;;;;;;;;4992899;28;20560;-60
2022/12/13 14:27:52;;;;;;;23.63;11.27;;;;;;;;;;4995757;28;20060;-60